sensor_id;sensor_type;location;lat;lon;timestamp;P1;durP1;ratioP1;P2;durP2;ratioP2
69404;SDS011;57084;52.046;5.632;2022-11-27T00:00:00;13.9;;;3.3;;
69404;SDS011;57084;52.046;5.632;2022-11-27T00:01:07;13.9;;;3.3;;
69404;SDS011;57084;52.046;5.632;2022-11-27T00:02:00;12.8;;;3.2;;
69404;SDS011;57084;52.046;5.632;2022-11-27T00:03:00;12.8;;;3.2;;
69404;SDS011;57084;52.046;5.632;2022-11-27T00:04:00;12.8;;;3.2;;
69404;SDS011;57084;52.046;5.632;2022-11-27T00:05:00;12.8;;;3.2;;
69404;SDS011;57084;52.046;5.632;2022-11-27T00:06:00;12.8;;;3.2;;
69404;SDS011;57084;52.046;5.632;2022-11-27T00:07:00;14.3;;;2.8;;
69404;SDS011;57084;52.046;5.632;2022-11-27T00:08:00;14.3;;;2.8;;
69404;SDS011;57084;52.046;5.632;2022-11-27T00:09:02;14.3;;;2.8;;
69404;SDS011;57084;52.046;5.632;2022-11-27T00:10:00;14.3;;;2.8;;
69404;SDS011;57084;52.046;5.632;2022-11-27T00:11:04;14.3;;;2.8;;
69404;SDS011;57084;52.046;5.632;2022-11-27T00:12:00;9.5;;;2.6;;
69404;SDS011;57084;52.046;5.632;2022-11-27T00:13:00;9.5;;;2.6;;
69404;SDS011;57084;52.046;5.632;2022-11-27T00:14:00;9.5;;;2.6;;
69404;SDS011;57084;52.046;5.632;2022-11-27T00:15:00;9.5;;;2.6;;
69404;SDS011;57084;52.046;5.632;2022-11-27T00:16:00;9.5;;;2.6;;
69404;SDS011;57084;52.046;5.632;2022-11-27T00:17:00;12.4;;;3.1;;
69404;SDS011;57084;52.046;5.632;2022-11-27T00:18:00;12.4;;;3.1;;
69404;SDS011;57084;52.046;5.632;2022-11-27T00:19:00;12.4;;;3.1;;
69404;SDS011;57084;52.046;5.632;2022-11-27T00:20:00;12.4;;;3.1;;
69404;SDS011;57084;52.046;5.632;2022-11-27T00:21:02;12.4;;;3.1;;
69404;SDS011;57084;52.046;5.632;2022-11-27T00:22:00;11.3;;;2.8;;
69404;SDS011;57084;52.046;5.632;2022-11-27T00:23:00;11.3;;;2.8;;
69404;SDS011;57084;52.046;5.632;2022-11-27T00:24:02;11.3;;;2.8;;
69404;SDS011;57084;52.046;5.632;2022-11-27T00:25:00;11.3;;;2.8;;
69404;SDS011;57084;52.046;5.632;2022-11-27T00:26:00;11.3;;;2.8;;
69404;SDS011;57084;52.046;5.632;2022-11-27T00:27:00;11.3;;;2.9;;
69404;SDS011;57084;52.046;5.632;2022-11-27T00:28:00;11.3;;;2.9;;
69404;SDS011;57084;52.046;5.632;2022-11-27T00:29:00;11.3;;;2.9;;
69404;SDS011;57084;52.046;5.632;2022-11-27T00:30:00;11.3;;;2.9;;
69404;SDS011;57084;52.046;5.632;2022-11-27T00:31:01;11.3;;;2.9;;
69404;SDS011;57084;52.046;5.632;2022-11-27T00:32:00;10.3;;;3.3;;
69404;SDS011;57084;52.046;5.632;2022-11-27T00:33:00;10.3;;;3.3;;
69404;SDS011;57084;52.046;5.632;2022-11-27T00:34:02;10.3;;;3.3;;
69404;SDS011;57084;52.046;5.632;2022-11-27T00:35:00;10.3;;;3.3;;
69404;SDS011;57084;52.046;5.632;2022-11-27T00:36:01;10.3;;;3.3;;
69404;SDS011;57084;52.046;5.632;2022-11-27T00:37:00;9.7;;;2.9;;
69404;SDS011;57084;52.046;5.632;2022-11-27T00:38:00;9.7;;;2.9;;
69404;SDS011;57084;52.046;5.632;2022-11-27T00:39:00;9.7;;;2.9;;
69404;SDS011;57084;52.046;5.632;2022-11-27T00:40:00;9.7;;;2.9;;
69404;SDS011;57084;52.046;5.632;2022-11-27T00:41:04;9.7;;;2.9;;
69404;SDS011;57084;52.046;5.632;2022-11-27T00:42:00;18.3;;;3.3;;
69404;SDS011;57084;52.046;5.632;2022-11-27T00:43:00;18.3;;;3.3;;
69404;SDS011;57084;52.046;5.632;2022-11-27T00:44:00;18.3;;;3.3;;
69404;SDS011;57084;52.046;5.632;2022-11-27T00:45:00;18.3;;;3.3;;
69404;SDS011;57084;52.046;5.632;2022-11-27T00:46:00;18.3;;;3.3;;
69404;SDS011;57084;52.046;5.632;2022-11-27T00:47:00;9.7;;;2.6;;
69404;SDS011;57084;52.046;5.632;2022-11-27T00:48:00;9.7;;;2.6;;
69404;SDS011;57084;52.046;5.632;2022-11-27T00:49:02;9.7;;;2.6;;
69404;SDS011;57084;52.046;5.632;2022-11-27T00:50:00;9.7;;;2.6;;
69404;SDS011;57084;52.046;5.632;2022-11-27T00:51:02;9.7;;;2.6;;
69404;SDS011;57084;52.046;5.632;2022-11-27T00:52:00;11.8;;;2.6;;
69404;SDS011;57084;52.046;5.632;2022-11-27T00:53:00;11.8;;;2.6;;
69404;SDS011;57084;52.046;5.632;2022-11-27T00:54:00;11.8;;;2.6;;
69404;SDS011;57084;52.046;5.632;2022-11-27T00:55:00;11.8;;;2.6;;
69404;SDS011;57084;52.046;5.632;2022-11-27T00:56:00;11.8;;;2.6;;
69404;SDS011;57084;52.046;5.632;2022-11-27T00:57:00;13.9;;;3.0;;
69404;SDS011;57084;52.046;5.632;2022-11-27T00:58:00;13.9;;;3.0;;
69404;SDS011;57084;52.046;5.632;2022-11-27T00:59:00;13.9;;;3.0;;
69404;SDS011;57084;52.046;5.632;2022-11-27T01:00:00;13.9;;;3.0;;
69404;SDS011;57084;52.046;5.632;2022-11-27T01:01:02;13.9;;;3.0;;
69404;SDS011;57084;52.046;5.632;2022-11-27T01:02:00;12.4;;;2.6;;
69404;SDS011;57084;52.046;5.632;2022-11-27T01:03:00;12.4;;;2.6;;
69404;SDS011;57084;52.046;5.632;2022-11-27T01:04:02;12.4;;;2.6;;
69404;SDS011;57084;52.046;5.632;2022-11-27T01:05:00;12.4;;;2.6;;
69404;SDS011;57084;52.046;5.632;2022-11-27T01:06:01;12.4;;;2.6;;
69404;SDS011;57084;52.046;5.632;2022-11-27T01:07:00;15.0;;;2.9;;
69404;SDS011;57084;52.046;5.632;2022-11-27T01:08:00;15.0;;;2.9;;
69404;SDS011;57084;52.046;5.632;2022-11-27T01:09:00;15.0;;;2.9;;
69404;SDS011;57084;52.046;5.632;2022-11-27T01:10:00;15.0;;;2.9;;
69404;SDS011;57084;52.046;5.632;2022-11-27T01:11:00;15.0;;;2.9;;
69404;SDS011;57084;52.046;5.632;2022-11-27T01:12:00;10.5;;;2.7;;
69404;SDS011;57084;52.046;5.632;2022-11-27T01:13:00;10.5;;;2.7;;
69404;SDS011;57084;52.046;5.632;2022-11-27T01:14:02;10.5;;;2.7;;
69404;SDS011;57084;52.046;5.632;2022-11-27T01:15:00;10.5;;;2.7;;
69404;SDS011;57084;52.046;5.632;2022-11-27T01:16:02;10.5;;;2.7;;
69404;SDS011;57084;52.046;5.632;2022-11-27T01:17:00;11.7;;;2.8;;
69404;SDS011;57084;52.046;5.632;2022-11-27T01:18:00;11.7;;;2.8;;
69404;SDS011;57084;52.046;5.632;2022-11-27T01:19:00;11.7;;;2.8;;
69404;SDS011;57084;52.046;5.632;2022-11-27T01:20:00;11.7;;;2.8;;
69404;SDS011;57084;52.046;5.632;2022-11-27T01:21:01;11.7;;;2.8;;
69404;SDS011;57084;52.046;5.632;2022-11-27T01:22:00;11.3;;;2.8;;
69404;SDS011;57084;52.046;5.632;2022-11-27T01:23:00;11.3;;;2.8;;
69404;SDS011;57084;52.046;5.632;2022-11-27T01:24:01;11.3;;;2.8;;
69404;SDS011;57084;52.046;5.632;2022-11-27T01:25:00;11.3;;;2.8;;
69404;SDS011;57084;52.046;5.632;2022-11-27T01:26:00;11.3;;;2.8;;
69404;SDS011;57084;52.046;5.632;2022-11-27T01:27:00;13.6;;;3.0;;
69404;SDS011;57084;52.046;5.632;2022-11-27T01:28:00;13.6;;;3.0;;
69404;SDS011;57084;52.046;5.632;2022-11-27T01:29:00;13.6;;;3.0;;
69404;SDS011;57084;52.046;5.632;2022-11-27T01:30:00;13.6;;;3.0;;
69404;SDS011;57084;52.046;5.632;2022-11-27T01:31:03;13.6;;;3.0;;
69404;SDS011;57084;52.046;5.632;2022-11-27T01:32:00;13.6;;;3.0;;
69404;SDS011;57084;52.046;5.632;2022-11-27T01:33:00;14.5;;;3.4;;
69404;SDS011;57084;52.046;5.632;2022-11-27T01:34:02;14.5;;;3.4;;
69404;SDS011;57084;52.046;5.632;2022-11-27T01:35:00;14.5;;;3.4;;
69404;SDS011;57084;52.046;5.632;2022-11-27T01:36:02;14.5;;;3.4;;
69404;SDS011;57084;52.046;5.632;2022-11-27T01:37:00;14.5;;;3.4;;
69404;SDS011;57084;52.046;5.632;2022-11-27T01:38:00;7.7;;;3.1;;
69404;SDS011;57084;52.046;5.632;2022-11-27T01:39:00;7.7;;;3.1;;
69404;SDS011;57084;52.046;5.632;2022-11-27T01:40:00;7.7;;;3.1;;
69404;SDS011;57084;52.046;5.632;2022-11-27T01:41:01;7.7;;;3.1;;
69404;SDS011;57084;52.046;5.632;2022-11-27T01:42:00;7.7;;;3.1;;
69404;SDS011;57084;52.046;5.632;2022-11-27T01:43:00;12.1;;;2.9;;
69404;SDS011;57084;52.046;5.632;2022-11-27T01:44:02;12.1;;;2.9;;
69404;SDS011;57084;52.046;5.632;2022-11-27T01:45:00;12.1;;;2.9;;
69404;SDS011;57084;52.046;5.632;2022-11-27T01:46:00;12.1;;;2.9;;
69404;SDS011;57084;52.046;5.632;2022-11-27T01:47:02;12.1;;;2.9;;
69404;SDS011;57084;52.046;5.632;2022-11-27T01:48:01;9.9;;;3.0;;
69404;SDS011;57084;52.046;5.632;2022-11-27T01:49:12;9.9;;;3.0;;
69404;SDS011;57084;52.046;5.632;2022-11-27T01:50:05;9.9;;;3.0;;
69404;SDS011;57084;52.046;5.632;2022-11-27T01:51:00;9.9;;;3.0;;
69404;SDS011;57084;52.046;5.632;2022-11-27T01:52:02;9.9;;;3.0;;
69404;SDS011;57084;52.046;5.632;2022-11-27T01:53:02;12.8;;;3.3;;
69404;SDS011;57084;52.046;5.632;2022-11-27T01:54:00;12.8;;;3.3;;
69404;SDS011;57084;52.046;5.632;2022-11-27T01:55:03;12.8;;;3.3;;
69404;SDS011;57084;52.046;5.632;2022-11-27T01:56:00;12.8;;;3.3;;
69404;SDS011;57084;52.046;5.632;2022-11-27T01:57:04;12.8;;;3.3;;
69404;SDS011;57084;52.046;5.632;2022-11-27T01:58:04;11.4;;;3.0;;
69404;SDS011;57084;52.046;5.632;2022-11-27T01:59:01;11.4;;;3.0;;
69404;SDS011;57084;52.046;5.632;2022-11-27T02:00:01;11.4;;;3.0;;
69404;SDS011;57084;52.046;5.632;2022-11-27T02:01:00;11.4;;;3.0;;
69404;SDS011;57084;52.046;5.632;2022-11-27T02:02:01;11.4;;;3.0;;
69404;SDS011;57084;52.046;5.632;2022-11-27T02:03:00;8.5;;;2.6;;
69404;SDS011;57084;52.046;5.632;2022-11-27T02:04:00;8.5;;;2.6;;
69404;SDS011;57084;52.046;5.632;2022-11-27T02:05:00;8.5;;;2.6;;
69404;SDS011;57084;52.046;5.632;2022-11-27T02:06:00;8.5;;;2.6;;
69404;SDS011;57084;52.046;5.632;2022-11-27T02:07:00;8.5;;;2.6;;
69404;SDS011;57084;52.046;5.632;2022-11-27T02:08:05;10.4;;;2.8;;
69404;SDS011;57084;52.046;5.632;2022-11-27T02:09:00;10.4;;;2.8;;
69404;SDS011;57084;52.046;5.632;2022-11-27T02:10:01;10.4;;;2.8;;
69404;SDS011;57084;52.046;5.632;2022-11-27T02:11:02;10.4;;;2.8;;
69404;SDS011;57084;52.046;5.632;2022-11-27T02:12:04;10.4;;;2.8;;
69404;SDS011;57084;52.046;5.632;2022-11-27T02:13:03;10.3;;;2.9;;
69404;SDS011;57084;52.046;5.632;2022-11-27T02:14:08;10.3;;;2.9;;
69404;SDS011;57084;52.046;5.632;2022-11-27T02:15:04;10.3;;;2.9;;
69404;SDS011;57084;52.046;5.632;2022-11-27T02:16:08;10.3;;;2.9;;
69404;SDS011;57084;52.046;5.632;2022-11-27T02:17:05;10.3;;;2.9;;
69404;SDS011;57084;52.046;5.632;2022-11-27T02:18:05;13.7;;;2.8;;
69404;SDS011;57084;52.046;5.632;2022-11-27T02:19:09;13.7;;;2.8;;
69404;SDS011;57084;52.046;5.632;2022-11-27T02:20:12;13.7;;;2.8;;
69404;SDS011;57084;52.046;5.632;2022-11-27T02:21:05;13.7;;;2.8;;
69404;SDS011;57084;52.046;5.632;2022-11-27T02:22:07;13.7;;;2.8;;
69404;SDS011;57084;52.046;5.632;2022-11-27T02:23:13;9.1;;;2.6;;
69404;SDS011;57084;52.046;5.632;2022-11-27T02:24:31;9.1;;;2.6;;
69404;SDS011;57084;52.046;5.632;2022-11-27T02:25:08;9.1;;;2.6;;
69404;SDS011;57084;52.046;5.632;2022-11-27T02:26:22;9.1;;;2.6;;
69404;SDS011;57084;52.046;5.632;2022-11-27T02:27:10;9.1;;;2.6;;
69404;SDS011;57084;52.046;5.632;2022-11-27T02:28:16;12.2;;;2.8;;
69404;SDS011;57084;52.046;5.632;2022-11-27T02:29:02;12.2;;;2.8;;
69404;SDS011;57084;52.046;5.632;2022-11-27T02:30:01;12.2;;;2.8;;
69404;SDS011;57084;52.046;5.632;2022-11-27T02:31:04;12.2;;;2.8;;
69404;SDS011;57084;52.046;5.632;2022-11-27T02:32:06;12.2;;;2.8;;
69404;SDS011;57084;52.046;5.632;2022-11-27T02:33:04;12.8;;;3.1;;
69404;SDS011;57084;52.046;5.632;2022-11-27T02:34:07;12.8;;;3.1;;
69404;SDS011;57084;52.046;5.632;2022-11-27T02:35:03;12.8;;;3.1;;
69404;SDS011;57084;52.046;5.632;2022-11-27T02:36:06;12.8;;;3.1;;
69404;SDS011;57084;52.046;5.632;2022-11-27T02:37:06;12.8;;;3.1;;
69404;SDS011;57084;52.046;5.632;2022-11-27T02:38:05;8.9;;;2.6;;
69404;SDS011;57084;52.046;5.632;2022-11-27T02:39:03;8.9;;;2.6;;
69404;SDS011;57084;52.046;5.632;2022-11-27T02:40:03;8.9;;;2.6;;
69404;SDS011;57084;52.046;5.632;2022-11-27T02:41:05;8.9;;;2.6;;
69404;SDS011;57084;52.046;5.632;2022-11-27T02:42:05;8.9;;;2.6;;
69404;SDS011;57084;52.046;5.632;2022-11-27T02:43:02;11.1;;;3.1;;
69404;SDS011;57084;52.046;5.632;2022-11-27T02:44:01;11.1;;;3.1;;
69404;SDS011;57084;52.046;5.632;2022-11-27T02:45:04;11.1;;;3.1;;
69404;SDS011;57084;52.046;5.632;2022-11-27T02:46:02;11.1;;;3.1;;
69404;SDS011;57084;52.046;5.632;2022-11-27T02:47:01;11.1;;;3.1;;
69404;SDS011;57084;52.046;5.632;2022-11-27T02:48:01;11.0;;;3.0;;
69404;SDS011;57084;52.046;5.632;2022-11-27T02:49:06;11.0;;;3.0;;
69404;SDS011;57084;52.046;5.632;2022-11-27T02:50:01;11.0;;;3.0;;
69404;SDS011;57084;52.046;5.632;2022-11-27T02:51:02;11.0;;;3.0;;
69404;SDS011;57084;52.046;5.632;2022-11-27T02:52:00;11.0;;;3.0;;
69404;SDS011;57084;52.046;5.632;2022-11-27T02:53:02;11.6;;;3.4;;
69404;SDS011;57084;52.046;5.632;2022-11-27T02:54:02;11.6;;;3.4;;
69404;SDS011;57084;52.046;5.632;2022-11-27T02:55:03;11.6;;;3.4;;
69404;SDS011;57084;52.046;5.632;2022-11-27T02:56:02;11.6;;;3.4;;
69404;SDS011;57084;52.046;5.632;2022-11-27T02:57:01;11.6;;;3.4;;
69404;SDS011;57084;52.046;5.632;2022-11-27T02:58:04;10.2;;;3.0;;
69404;SDS011;57084;52.046;5.632;2022-11-27T02:59:02;10.2;;;3.0;;
69404;SDS011;57084;52.046;5.632;2022-11-27T03:00:00;10.2;;;3.0;;
69404;SDS011;57084;52.046;5.632;2022-11-27T03:01:02;10.2;;;3.0;;
69404;SDS011;57084;52.046;5.632;2022-11-27T03:02:04;10.2;;;3.0;;
69404;SDS011;57084;52.046;5.632;2022-11-27T03:03:04;15.8;;;3.2;;
69404;SDS011;57084;52.046;5.632;2022-11-27T03:04:02;15.8;;;3.2;;
69404;SDS011;57084;52.046;5.632;2022-11-27T03:05:02;15.8;;;3.2;;
69404;SDS011;57084;52.046;5.632;2022-11-27T03:06:03;15.8;;;3.2;;
69404;SDS011;57084;52.046;5.632;2022-11-27T03:07:05;15.8;;;3.2;;
69404;SDS011;57084;52.046;5.632;2022-11-27T03:08:03;14.0;;;3.1;;
69404;SDS011;57084;52.046;5.632;2022-11-27T03:09:05;14.0;;;3.1;;
69404;SDS011;57084;52.046;5.632;2022-11-27T03:10:03;14.0;;;3.1;;
69404;SDS011;57084;52.046;5.632;2022-11-27T03:11:02;14.0;;;3.1;;
69404;SDS011;57084;52.046;5.632;2022-11-27T03:12:00;14.0;;;3.1;;
69404;SDS011;57084;52.046;5.632;2022-11-27T03:13:01;11.2;;;3.0;;
69404;SDS011;57084;52.046;5.632;2022-11-27T03:14:02;11.2;;;3.0;;
69404;SDS011;57084;52.046;5.632;2022-11-27T03:15:00;11.2;;;3.0;;
69404;SDS011;57084;52.046;5.632;2022-11-27T03:16:06;11.2;;;3.0;;
69404;SDS011;57084;52.046;5.632;2022-11-27T03:17:05;11.2;;;3.0;;
69404;SDS011;57084;52.046;5.632;2022-11-27T03:18:05;11.9;;;3.0;;
69404;SDS011;57084;52.046;5.632;2022-11-27T03:19:08;11.9;;;3.0;;
69404;SDS011;57084;52.046;5.632;2022-11-27T03:20:07;11.9;;;3.0;;
69404;SDS011;57084;52.046;5.632;2022-11-27T03:21:03;11.9;;;3.0;;
69404;SDS011;57084;52.046;5.632;2022-11-27T03:22:01;11.9;;;3.0;;
69404;SDS011;57084;52.046;5.632;2022-11-27T03:23:00;12.8;;;3.1;;
69404;SDS011;57084;52.046;5.632;2022-11-27T03:24:00;12.8;;;3.1;;
69404;SDS011;57084;52.046;5.632;2022-11-27T03:25:00;12.8;;;3.1;;
69404;SDS011;57084;52.046;5.632;2022-11-27T03:26:00;12.8;;;3.1;;
69404;SDS011;57084;52.046;5.632;2022-11-27T03:27:01;12.8;;;3.1;;
69404;SDS011;57084;52.046;5.632;2022-11-27T03:28:02;13.2;;;2.9;;
69404;SDS011;57084;52.046;5.632;2022-11-27T03:29:02;13.2;;;2.9;;
69404;SDS011;57084;52.046;5.632;2022-11-27T03:30:01;13.2;;;2.9;;
69404;SDS011;57084;52.046;5.632;2022-11-27T03:31:00;13.2;;;2.9;;
69404;SDS011;57084;52.046;5.632;2022-11-27T03:32:00;13.2;;;2.9;;
69404;SDS011;57084;52.046;5.632;2022-11-27T03:33:00;13.2;;;2.9;;
69404;SDS011;57084;52.046;5.632;2022-11-27T03:34:00;11.2;;;2.9;;
69404;SDS011;57084;52.046;5.632;2022-11-27T03:35:00;11.2;;;2.9;;
69404;SDS011;57084;52.046;5.632;2022-11-27T03:36:00;11.2;;;2.9;;
69404;SDS011;57084;52.046;5.632;2022-11-27T03:37:00;11.2;;;2.9;;
69404;SDS011;57084;52.046;5.632;2022-11-27T03:38:00;11.2;;;2.9;;
69404;SDS011;57084;52.046;5.632;2022-11-27T03:39:00;11.2;;;2.8;;
69404;SDS011;57084;52.046;5.632;2022-11-27T03:40:00;11.2;;;2.8;;
69404;SDS011;57084;52.046;5.632;2022-11-27T03:41:04;11.2;;;2.8;;
69404;SDS011;57084;52.046;5.632;2022-11-27T03:42:05;11.2;;;2.8;;
69404;SDS011;57084;52.046;5.632;2022-11-27T03:43:03;11.2;;;2.8;;
69404;SDS011;57084;52.046;5.632;2022-11-27T03:44:05;8.0;;;2.9;;
69404;SDS011;57084;52.046;5.632;2022-11-27T03:45:06;8.0;;;2.9;;
69404;SDS011;57084;52.046;5.632;2022-11-27T03:46:06;8.0;;;2.9;;
69404;SDS011;57084;52.046;5.632;2022-11-27T03:47:07;8.0;;;2.9;;
69404;SDS011;57084;52.046;5.632;2022-11-27T03:48:09;8.0;;;2.9;;
69404;SDS011;57084;52.046;5.632;2022-11-27T03:49:06;10.7;;;2.6;;
69404;SDS011;57084;52.046;5.632;2022-11-27T03:50:12;10.7;;;2.6;;
69404;SDS011;57084;52.046;5.632;2022-11-27T03:51:05;10.7;;;2.6;;
69404;SDS011;57084;52.046;5.632;2022-11-27T03:52:07;10.7;;;2.6;;
69404;SDS011;57084;52.046;5.632;2022-11-27T03:53:07;10.7;;;2.6;;
69404;SDS011;57084;52.046;5.632;2022-11-27T03:54:04;8.0;;;2.8;;
69404;SDS011;57084;52.046;5.632;2022-11-27T03:55:04;8.0;;;2.8;;
69404;SDS011;57084;52.046;5.632;2022-11-27T03:56:05;8.0;;;2.8;;
69404;SDS011;57084;52.046;5.632;2022-11-27T03:57:06;8.0;;;2.8;;
69404;SDS011;57084;52.046;5.632;2022-11-27T03:58:03;8.0;;;2.8;;
69404;SDS011;57084;52.046;5.632;2022-11-27T03:59:03;6.9;;;2.5;;
69404;SDS011;57084;52.046;5.632;2022-11-27T04:00:02;6.9;;;2.5;;
69404;SDS011;57084;52.046;5.632;2022-11-27T04:01:02;6.9;;;2.5;;
69404;SDS011;57084;52.046;5.632;2022-11-27T04:02:00;6.9;;;2.5;;
69404;SDS011;57084;52.046;5.632;2022-11-27T04:03:01;6.9;;;2.5;;
69404;SDS011;57084;52.046;5.632;2022-11-27T04:04:00;9.5;;;2.8;;
69404;SDS011;57084;52.046;5.632;2022-11-27T04:05:00;9.5;;;2.8;;
69404;SDS011;57084;52.046;5.632;2022-11-27T04:06:00;9.5;;;2.8;;
69404;SDS011;57084;52.046;5.632;2022-11-27T04:07:00;9.5;;;2.8;;
69404;SDS011;57084;52.046;5.632;2022-11-27T04:08:00;9.5;;;2.8;;
69404;SDS011;57084;52.046;5.632;2022-11-27T04:09:00;9.5;;;2.3;;
69404;SDS011;57084;52.046;5.632;2022-11-27T04:10:00;9.5;;;2.3;;
69404;SDS011;57084;52.046;5.632;2022-11-27T04:11:00;9.5;;;2.3;;
69404;SDS011;57084;52.046;5.632;2022-11-27T04:12:00;9.5;;;2.3;;
69404;SDS011;57084;52.046;5.632;2022-11-27T04:13:00;9.5;;;2.3;;
69404;SDS011;57084;52.046;5.632;2022-11-27T04:14:00;7.8;;;2.4;;
69404;SDS011;57084;52.046;5.632;2022-11-27T04:15:00;7.8;;;2.4;;
69404;SDS011;57084;52.046;5.632;2022-11-27T04:16:00;7.8;;;2.4;;
69404;SDS011;57084;52.046;5.632;2022-11-27T04:17:00;7.8;;;2.4;;
69404;SDS011;57084;52.046;5.632;2022-11-27T04:18:00;7.8;;;2.4;;
69404;SDS011;57084;52.046;5.632;2022-11-27T04:19:00;10.2;;;2.5;;
69404;SDS011;57084;52.046;5.632;2022-11-27T04:20:00;10.2;;;2.5;;
69404;SDS011;57084;52.046;5.632;2022-11-27T04:21:00;10.2;;;2.5;;
69404;SDS011;57084;52.046;5.632;2022-11-27T04:22:00;10.2;;;2.5;;
69404;SDS011;57084;52.046;5.632;2022-11-27T04:23:00;10.2;;;2.5;;
69404;SDS011;57084;52.046;5.632;2022-11-27T04:24:00;9.0;;;2.6;;
69404;SDS011;57084;52.046;5.632;2022-11-27T04:25:00;9.0;;;2.6;;
69404;SDS011;57084;52.046;5.632;2022-11-27T04:26:00;9.0;;;2.6;;
69404;SDS011;57084;52.046;5.632;2022-11-27T04:27:00;9.0;;;2.6;;
69404;SDS011;57084;52.046;5.632;2022-11-27T04:28:00;9.0;;;2.6;;
69404;SDS011;57084;52.046;5.632;2022-11-27T04:29:00;7.3;;;2.2;;
69404;SDS011;57084;52.046;5.632;2022-11-27T04:30:00;7.3;;;2.2;;
69404;SDS011;57084;52.046;5.632;2022-11-27T04:31:00;7.3;;;2.2;;
69404;SDS011;57084;52.046;5.632;2022-11-27T04:32:00;7.3;;;2.2;;
69404;SDS011;57084;52.046;5.632;2022-11-27T04:33:00;7.3;;;2.2;;
69404;SDS011;57084;52.046;5.632;2022-11-27T04:34:00;10.8;;;2.9;;
69404;SDS011;57084;52.046;5.632;2022-11-27T04:35:00;10.8;;;2.9;;
69404;SDS011;57084;52.046;5.632;2022-11-27T04:36:00;10.8;;;2.9;;
69404;SDS011;57084;52.046;5.632;2022-11-27T04:37:00;10.8;;;2.9;;
69404;SDS011;57084;52.046;5.632;2022-11-27T04:38:00;10.8;;;2.9;;
69404;SDS011;57084;52.046;5.632;2022-11-27T04:39:00;7.3;;;2.3;;
69404;SDS011;57084;52.046;5.632;2022-11-27T04:40:00;7.3;;;2.3;;
69404;SDS011;57084;52.046;5.632;2022-11-27T04:41:00;7.3;;;2.3;;
69404;SDS011;57084;52.046;5.632;2022-11-27T04:42:00;7.3;;;2.3;;
69404;SDS011;57084;52.046;5.632;2022-11-27T04:43:00;7.3;;;2.3;;
69404;SDS011;57084;52.046;5.632;2022-11-27T04:44:00;11.7;;;2.4;;
69404;SDS011;57084;52.046;5.632;2022-11-27T04:45:00;11.7;;;2.4;;
69404;SDS011;57084;52.046;5.632;2022-11-27T04:46:00;11.7;;;2.4;;
69404;SDS011;57084;52.046;5.632;2022-11-27T04:47:00;11.7;;;2.4;;
69404;SDS011;57084;52.046;5.632;2022-11-27T04:48:00;11.7;;;2.4;;
69404;SDS011;57084;52.046;5.632;2022-11-27T04:49:00;9.2;;;2.0;;
69404;SDS011;57084;52.046;5.632;2022-11-27T04:50:00;9.2;;;2.0;;
69404;SDS011;57084;52.046;5.632;2022-11-27T04:51:00;9.2;;;2.0;;
69404;SDS011;57084;52.046;5.632;2022-11-27T04:52:00;9.2;;;2.0;;
69404;SDS011;57084;52.046;5.632;2022-11-27T04:53:00;9.2;;;2.0;;
69404;SDS011;57084;52.046;5.632;2022-11-27T04:54:00;7.8;;;2.2;;
69404;SDS011;57084;52.046;5.632;2022-11-27T04:55:00;7.8;;;2.2;;
69404;SDS011;57084;52.046;5.632;2022-11-27T04:56:00;7.8;;;2.2;;
69404;SDS011;57084;52.046;5.632;2022-11-27T04:57:00;7.8;;;2.2;;
69404;SDS011;57084;52.046;5.632;2022-11-27T04:58:00;7.8;;;2.2;;
69404;SDS011;57084;52.046;5.632;2022-11-27T04:59:00;9.0;;;2.0;;
69404;SDS011;57084;52.046;5.632;2022-11-27T05:00:00;9.0;;;2.0;;
69404;SDS011;57084;52.046;5.632;2022-11-27T05:01:00;9.0;;;2.0;;
69404;SDS011;57084;52.046;5.632;2022-11-27T05:02:00;9.0;;;2.0;;
69404;SDS011;57084;52.046;5.632;2022-11-27T05:03:00;9.0;;;2.0;;
69404;SDS011;57084;52.046;5.632;2022-11-27T05:04:00;7.8;;;2.3;;
69404;SDS011;57084;52.046;5.632;2022-11-27T05:05:00;7.8;;;2.3;;
69404;SDS011;57084;52.046;5.632;2022-11-27T05:06:00;7.8;;;2.3;;
69404;SDS011;57084;52.046;5.632;2022-11-27T05:07:00;7.8;;;2.3;;
69404;SDS011;57084;52.046;5.632;2022-11-27T05:08:00;7.8;;;2.3;;
69404;SDS011;57084;52.046;5.632;2022-11-27T05:09:00;8.7;;;2.1;;
69404;SDS011;57084;52.046;5.632;2022-11-27T05:10:00;8.7;;;2.1;;
69404;SDS011;57084;52.046;5.632;2022-11-27T05:11:01;8.7;;;2.1;;
69404;SDS011;57084;52.046;5.632;2022-11-27T05:12:00;8.7;;;2.1;;
69404;SDS011;57084;52.046;5.632;2022-11-27T05:13:00;8.7;;;2.1;;
69404;SDS011;57084;52.046;5.632;2022-11-27T05:14:00;7.6;;;2.0;;
69404;SDS011;57084;52.046;5.632;2022-11-27T05:15:00;7.6;;;2.0;;
69404;SDS011;57084;52.046;5.632;2022-11-27T05:16:00;7.6;;;2.0;;
69404;SDS011;57084;52.046;5.632;2022-11-27T05:17:00;7.6;;;2.0;;
69404;SDS011;57084;52.046;5.632;2022-11-27T05:18:00;7.6;;;2.0;;
69404;SDS011;57084;52.046;5.632;2022-11-27T05:19:00;7.9;;;1.6;;
69404;SDS011;57084;52.046;5.632;2022-11-27T05:20:00;7.9;;;1.6;;
69404;SDS011;57084;52.046;5.632;2022-11-27T05:21:02;7.9;;;1.6;;
69404;SDS011;57084;52.046;5.632;2022-11-27T05:22:00;7.9;;;1.6;;
69404;SDS011;57084;52.046;5.632;2022-11-27T05:23:00;7.9;;;1.6;;
69404;SDS011;57084;52.046;5.632;2022-11-27T05:24:00;7.6;;;2.3;;
69404;SDS011;57084;52.046;5.632;2022-11-27T05:25:00;7.6;;;2.3;;
69404;SDS011;57084;52.046;5.632;2022-11-27T05:26:00;7.6;;;2.3;;
69404;SDS011;57084;52.046;5.632;2022-11-27T05:27:00;7.6;;;2.3;;
69404;SDS011;57084;52.046;5.632;2022-11-27T05:28:00;7.6;;;2.3;;
69404;SDS011;57084;52.046;5.632;2022-11-27T05:29:01;9.0;;;2.2;;
69404;SDS011;57084;52.046;5.632;2022-11-27T05:30:00;9.0;;;2.2;;
69404;SDS011;57084;52.046;5.632;2022-11-27T05:31:00;9.0;;;2.2;;
69404;SDS011;57084;52.046;5.632;2022-11-27T05:32:00;9.0;;;2.2;;
69404;SDS011;57084;52.046;5.632;2022-11-27T05:33:00;9.0;;;2.2;;
69404;SDS011;57084;52.046;5.632;2022-11-27T05:34:00;9.0;;;2.2;;
69404;SDS011;57084;52.046;5.632;2022-11-27T05:35:00;8.9;;;2.1;;
69404;SDS011;57084;52.046;5.632;2022-11-27T05:36:00;8.9;;;2.1;;
69404;SDS011;57084;52.046;5.632;2022-11-27T05:37:00;8.9;;;2.1;;
69404;SDS011;57084;52.046;5.632;2022-11-27T05:38:00;8.9;;;2.1;;
69404;SDS011;57084;52.046;5.632;2022-11-27T05:39:00;8.9;;;2.1;;
69404;SDS011;57084;52.046;5.632;2022-11-27T05:40:00;7.2;;;2.2;;
69404;SDS011;57084;52.046;5.632;2022-11-27T05:41:00;7.2;;;2.2;;
69404;SDS011;57084;52.046;5.632;2022-11-27T05:42:00;7.2;;;2.2;;
69404;SDS011;57084;52.046;5.632;2022-11-27T05:43:00;7.2;;;2.2;;
69404;SDS011;57084;52.046;5.632;2022-11-27T05:44:00;7.2;;;2.2;;
69404;SDS011;57084;52.046;5.632;2022-11-27T05:45:00;8.3;;;2.3;;
69404;SDS011;57084;52.046;5.632;2022-11-27T05:46:03;8.3;;;2.3;;
69404;SDS011;57084;52.046;5.632;2022-11-27T05:47:00;8.3;;;2.3;;
69404;SDS011;57084;52.046;5.632;2022-11-27T05:48:00;8.3;;;2.3;;
69404;SDS011;57084;52.046;5.632;2022-11-27T05:49:00;8.3;;;2.3;;
69404;SDS011;57084;52.046;5.632;2022-11-27T05:50:00;9.7;;;2.2;;
69404;SDS011;57084;52.046;5.632;2022-11-27T05:51:00;9.7;;;2.2;;
69404;SDS011;57084;52.046;5.632;2022-11-27T05:52:00;9.7;;;2.2;;
69404;SDS011;57084;52.046;5.632;2022-11-27T05:53:00;9.7;;;2.2;;
69404;SDS011;57084;52.046;5.632;2022-11-27T05:54:00;9.7;;;2.2;;
69404;SDS011;57084;52.046;5.632;2022-11-27T05:55:00;5.9;;;1.9;;
69404;SDS011;57084;52.046;5.632;2022-11-27T05:56:01;5.9;;;1.9;;
69404;SDS011;57084;52.046;5.632;2022-11-27T05:57:00;5.9;;;1.9;;
69404;SDS011;57084;52.046;5.632;2022-11-27T05:58:00;5.9;;;1.9;;
69404;SDS011;57084;52.046;5.632;2022-11-27T05:59:00;5.9;;;1.9;;
69404;SDS011;57084;52.046;5.632;2022-11-27T06:00:00;8.5;;;2.2;;
69404;SDS011;57084;52.046;5.632;2022-11-27T06:01:00;8.5;;;2.2;;
69404;SDS011;57084;52.046;5.632;2022-11-27T06:02:00;8.5;;;2.2;;
69404;SDS011;57084;52.046;5.632;2022-11-27T06:03:00;8.5;;;2.2;;
69404;SDS011;57084;52.046;5.632;2022-11-27T06:04:00;8.5;;;2.2;;
69404;SDS011;57084;52.046;5.632;2022-11-27T06:05:00;8.2;;;2.0;;
69404;SDS011;57084;52.046;5.632;2022-11-27T06:06:05;8.2;;;2.0;;
69404;SDS011;57084;52.046;5.632;2022-11-27T06:07:00;8.2;;;2.0;;
69404;SDS011;57084;52.046;5.632;2022-11-27T06:08:00;8.2;;;2.0;;
69404;SDS011;57084;52.046;5.632;2022-11-27T06:09:00;8.2;;;2.0;;